createdAt,value
2023-02-16T00:00:56.316Z,2.16
2023-02-16T00:01:56.432Z,2.18
2023-02-16T00:02:56.389Z,2.18
2023-02-16T00:03:56.439Z,2.19
2023-02-16T00:04:56.470Z,2.22
2023-02-16T00:05:56.499Z,2.23
2023-02-16T00:06:56.536Z,2.19
2023-02-16T00:07:56.571Z,2.19
2023-02-16T00:08:56.604Z,2.19
2023-02-16T00:09:56.638Z,2.19
2023-02-16T00:10:56.670Z,2.19
2023-02-16T00:11:56.704Z,2.2
2023-02-16T00:12:56.742Z,2.19
2023-02-16T00:13:56.766Z,2.19
2023-02-16T00:14:56.799Z,2.13
2023-02-16T00:15:56.916Z,2.13
2023-02-16T00:16:56.866Z,2.07
2023-02-16T00:17:56.907Z,2.07
2023-02-16T00:18:56.932Z,2.07
2023-02-16T00:19:56.973Z,2.07
2023-02-16T00:20:57.015Z,2.05
2023-02-16T00:21:57.059Z,2.03
2023-02-16T00:22:57.085Z,2.03
2023-02-16T00:23:57.115Z,2.03
2023-02-16T00:24:57.150Z,2.03
2023-02-16T00:25:57.193Z,2.02
2023-02-16T00:26:57.229Z,1.99
2023-02-16T00:27:57.261Z,1.98
2023-02-16T00:28:57.294Z,1.94
2023-02-16T00:29:57.358Z,1.97
2023-02-16T00:30:57.521Z,1.98
2023-02-16T00:31:57.536Z,1.98
2023-02-16T00:32:57.427Z,1.97
2023-02-16T00:33:57.477Z,1.94
2023-02-16T00:34:57.502Z,1.93
2023-02-16T00:35:57.543Z,1.95
2023-02-16T00:36:57.590Z,1.96
2023-02-16T00:37:57.618Z,1.97
2023-02-16T00:38:57.654Z,1.97
2023-02-16T00:39:57.686Z,1.97
2023-02-16T00:40:57.727Z,1.97
2023-02-16T00:41:57.757Z,2.02
2023-02-16T00:42:57.801Z,2.02
2023-02-16T00:43:57.838Z,2.05
2023-02-16T00:44:57.886Z,2.06
2023-02-16T00:45:57.956Z,2.07
2023-02-16T00:46:57.942Z,2.06
2023-02-16T00:47:57.961Z,2.07
2023-02-16T00:48:57.999Z,2.06
2023-02-16T00:49:58.039Z,2.07
2023-02-16T00:50:58.061Z,2.06
2023-02-16T00:51:58.093Z,2.04
2023-02-16T00:52:58.134Z,2.04
2023-02-16T00:53:58.172Z,2.04
2023-02-16T00:54:58.211Z,2.07
2023-02-16T00:55:58.257Z,2.06
2023-02-16T00:56:58.278Z,2.08
2023-02-16T00:57:58.324Z,2.05
2023-02-16T00:58:58.353Z,2.04
2023-02-16T00:59:58.356Z,2.03
2023-02-16T01:00:58.402Z,2.01
2023-02-16T01:01:58.439Z,2
2023-02-16T01:02:58.478Z,2
2023-02-16T01:03:58.489Z,2.01
2023-02-16T01:04:58.524Z,2
2023-02-16T01:05:58.555Z,1.99
2023-02-16T01:06:58.588Z,1.97
2023-02-16T01:07:58.612Z,1.99
2023-02-16T01:08:58.655Z,1.98
2023-02-16T01:09:58.686Z,2
2023-02-16T01:10:58.730Z,1.98
2023-02-16T01:11:58.744Z,1.97
2023-02-16T01:12:58.780Z,1.97
2023-02-16T01:13:58.814Z,1.97
2023-02-16T01:14:58.836Z,1.94
2023-02-16T01:15:58.937Z,1.94
2023-02-16T01:16:58.903Z,1.93
2023-02-16T01:17:58.997Z,1.92
2023-02-16T01:18:58.965Z,1.93
2023-02-16T01:19:59.005Z,1.94
2023-02-16T01:20:59.031Z,1.95
2023-02-16T01:21:59.069Z,1.93
2023-02-16T01:22:59.128Z,1.94
2023-02-16T01:23:59.133Z,1.91
2023-02-16T01:24:59.167Z,1.93
2023-02-16T01:25:59.214Z,1.9
2023-02-16T01:26:59.235Z,1.88
2023-02-16T01:27:59.269Z,1.88
2023-02-16T01:28:59.310Z,1.88
2023-02-16T01:29:59.440Z,1.85
2023-02-16T01:30:59.427Z,1.84
2023-02-16T01:31:59.511Z,1.82
2023-02-16T01:32:59.431Z,1.85
2023-02-16T01:33:59.463Z,1.79
2023-02-16T01:34:59.507Z,1.79
2023-02-16T01:35:59.542Z,1.79
2023-02-16T01:36:59.574Z,1.79
2023-02-16T01:37:59.618Z,1.79
2023-02-16T01:38:59.648Z,1.8
2023-02-16T01:39:59.684Z,1.8
2023-02-16T01:40:59.719Z,1.76
2023-02-16T01:41:59.781Z,1.76
2023-02-16T01:42:59.781Z,1.75
2023-02-16T01:43:59.824Z,1.78
2023-02-16T01:44:59.850Z,1.78
2023-02-16T01:45:59.876Z,1.78
2023-02-16T01:46:59.919Z,1.78
2023-02-16T01:47:59.962Z,1.76
2023-02-16T01:49:00.024Z,1.77
2023-02-16T01:50:02.871Z,1.76
2023-02-16T01:51:00.097Z,1.75
2023-02-16T01:52:00.117Z,1.75
2023-02-16T01:53:00.138Z,1.75
2023-02-16T01:54:00.195Z,1.74
2023-02-16T01:55:00.202Z,1.74
2023-02-16T01:56:00.236Z,1.75
2023-02-16T01:57:00.260Z,1.75
2023-02-16T01:58:00.295Z,1.75
2023-02-16T01:59:00.325Z,1.75
2023-02-16T02:00:00.356Z,1.75
2023-02-16T02:01:00.381Z,1.74
2023-02-16T02:02:00.497Z,1.75
2023-02-16T02:03:00.561Z,1.74
2023-02-16T02:04:00.490Z,1.68
2023-02-16T02:05:00.526Z,1.68
2023-02-16T02:06:00.554Z,1.71
2023-02-16T02:07:00.583Z,1.69
2023-02-16T02:08:00.621Z,1.69
2023-02-16T02:09:00.663Z,1.69
2023-02-16T02:10:00.693Z,1.69
2023-02-16T02:11:00.759Z,1.69
2023-02-16T02:12:00.767Z,1.69
2023-02-16T02:13:00.828Z,1.7
2023-02-16T02:14:00.821Z,1.69
2023-02-16T02:15:00.843Z,1.73
2023-02-16T02:16:00.969Z,1.73
2023-02-16T02:17:00.915Z,1.73
2023-02-16T02:18:00.947Z,1.71
2023-02-16T02:19:00.987Z,1.71
2023-02-16T02:20:01.005Z,1.71
2023-02-16T02:21:01.188Z,1.69
2023-02-16T02:22:01.080Z,1.66
2023-02-16T02:23:01.113Z,1.64
2023-02-16T02:24:01.164Z,1.63
2023-02-16T02:25:01.183Z,1.63
2023-02-16T02:26:01.225Z,1.66
2023-02-16T02:27:01.256Z,1.69
2023-02-16T02:28:01.289Z,1.68
2023-02-16T02:29:01.320Z,1.68
2023-02-16T02:30:01.470Z,1.69
2023-02-16T02:31:01.550Z,1.69
2023-02-16T02:32:01.545Z,1.67
2023-02-16T02:33:01.458Z,1.68
2023-02-16T02:34:01.495Z,1.72
2023-02-16T02:35:01.537Z,1.66
2023-02-16T02:36:01.567Z,1.67
2023-02-16T02:37:01.598Z,1.7
2023-02-16T02:38:01.628Z,1.66
2023-02-16T02:39:01.668Z,1.67
2023-02-16T02:40:01.719Z,1.68
2023-02-16T02:41:02.001Z,1.68
2023-02-16T02:42:01.755Z,1.68
2023-02-16T02:43:01.783Z,1.66
2023-02-16T02:44:01.809Z,1.65
2023-02-16T02:45:01.841Z,1.65
2023-02-16T02:46:01.885Z,1.64
2023-02-16T02:47:01.919Z,1.65
2023-02-16T02:48:01.941Z,1.66
2023-02-16T02:49:01.980Z,1.67
2023-02-16T02:50:02.012Z,1.67
2023-02-16T02:51:02.448Z,1.65
2023-02-16T02:52:02.095Z,1.64
2023-02-16T02:53:02.104Z,1.61
2023-02-16T02:54:02.132Z,1.62
2023-02-16T02:55:02.173Z,1.62
2023-02-16T02:56:02.216Z,1.61
2023-02-16T02:57:02.264Z,1.59
2023-02-16T02:58:02.270Z,1.59
2023-02-16T02:59:02.319Z,1.58
2023-02-16T03:00:02.338Z,1.6
2023-02-16T03:01:02.815Z,1.65
2023-02-16T03:02:02.483Z,1.65
2023-02-16T03:03:02.431Z,1.65
2023-02-16T03:04:02.471Z,1.65
2023-02-16T03:05:02.502Z,1.65
2023-02-16T03:06:02.535Z,1.64
2023-02-16T03:07:02.564Z,1.61
2023-02-16T03:08:02.595Z,1.61
2023-02-16T03:09:02.641Z,1.59
2023-02-16T03:10:02.670Z,1.58
2023-02-16T03:11:03.038Z,1.59
2023-02-16T03:12:02.740Z,1.63
2023-02-16T03:13:02.788Z,1.61
2023-02-16T03:14:02.811Z,1.59
2023-02-16T03:15:02.850Z,1.59
2023-02-16T03:16:02.922Z,1.6
2023-02-16T03:17:02.912Z,1.59
2023-02-16T03:18:02.942Z,1.62
2023-02-16T03:19:02.968Z,1.62
2023-02-16T03:20:03.004Z,1.62
2023-02-16T03:21:03.355Z,1.61
2023-02-16T03:22:03.070Z,1.6
2023-02-16T03:23:03.105Z,1.6
2023-02-16T03:24:03.148Z,1.6
2023-02-16T03:25:03.174Z,1.59
2023-02-16T03:26:03.214Z,1.59
2023-02-16T03:27:03.340Z,1.61
2023-02-16T03:28:03.284Z,1.61
2023-02-16T03:29:03.317Z,1.61
2023-02-16T03:30:03.379Z,1.61
2023-02-16T03:31:03.743Z,1.62
2023-02-16T03:32:03.452Z,1.61
2023-02-16T03:33:03.461Z,1.61
2023-02-16T03:34:03.485Z,1.61
2023-02-16T03:35:03.524Z,1.61
2023-02-16T03:36:03.555Z,1.61
2023-02-16T03:37:03.597Z,1.61
2023-02-16T03:38:03.635Z,1.61
2023-02-16T03:39:03.650Z,1.62
2023-02-16T03:40:03.689Z,1.62
2023-02-16T03:41:04.035Z,1.62
2023-02-16T03:42:03.757Z,1.61
2023-02-16T03:43:03.796Z,1.6
2023-02-16T03:44:03.829Z,1.58
2023-02-16T03:45:03.853Z,1.58
2023-02-16T03:46:04.043Z,1.59
2023-02-16T03:47:03.955Z,1.59
2023-02-16T03:48:03.970Z,1.6
2023-02-16T03:49:04.009Z,1.61
2023-02-16T03:50:04.028Z,1.6
2023-02-16T03:51:04.348Z,1.59
2023-02-16T03:52:04.082Z,1.6
2023-02-16T03:53:04.131Z,1.61
2023-02-16T03:54:04.159Z,1.6
2023-02-16T03:55:04.196Z,1.6
2023-02-16T03:56:04.223Z,1.59
2023-02-16T03:57:04.260Z,1.6
2023-02-16T03:58:04.302Z,1.6
2023-02-16T03:59:04.324Z,1.61
2023-02-16T04:00:04.386Z,1.63
2023-02-16T04:01:04.842Z,1.64
2023-02-16T04:02:04.484Z,1.6
2023-02-16T04:03:04.460Z,1.61
2023-02-16T04:04:04.550Z,1.6
2023-02-16T04:05:04.549Z,1.57
2023-02-16T04:06:04.571Z,1.57
2023-02-16T04:07:04.607Z,1.6
2023-02-16T04:08:04.629Z,1.59
2023-02-16T04:09:04.663Z,1.58
2023-02-16T04:10:04.709Z,1.59
2023-02-16T04:11:04.997Z,1.59
2023-02-16T04:12:04.766Z,1.59
2023-02-16T04:13:04.810Z,1.59
2023-02-16T04:14:04.840Z,1.6
2023-02-16T04:15:04.873Z,1.61
2023-02-16T04:16:04.894Z,1.61
2023-02-16T04:17:04.946Z,1.62
2023-02-16T04:18:04.971Z,1.62
2023-02-16T04:19:04.999Z,1.62
2023-02-16T04:20:05.031Z,1.61
2023-02-16T04:21:05.298Z,1.62
2023-02-16T04:22:05.105Z,1.63
2023-02-16T04:23:05.179Z,1.63
2023-02-16T04:24:05.217Z,1.64
2023-02-16T04:25:05.225Z,1.64
2023-02-16T04:26:05.280Z,1.65
2023-02-16T04:27:05.298Z,1.65
2023-02-16T04:28:05.325Z,1.62
2023-02-16T04:29:05.361Z,1.62
2023-02-16T04:30:05.480Z,1.62
2023-02-16T04:31:05.824Z,1.62
2023-02-16T04:32:05.536Z,1.62
2023-02-16T04:33:05.499Z,1.61
2023-02-16T04:34:05.545Z,1.61
2023-02-16T04:35:05.572Z,1.61
2023-02-16T04:36:05.616Z,1.61
2023-02-16T04:37:05.635Z,1.61
2023-02-16T04:38:05.660Z,1.63
2023-02-16T04:39:05.701Z,1.64
2023-02-16T04:40:05.726Z,1.64
2023-02-16T04:41:06.011Z,1.65
2023-02-16T04:42:05.797Z,1.65
2023-02-16T04:43:05.826Z,1.66
2023-02-16T04:44:05.863Z,1.66
2023-02-16T04:45:05.898Z,1.66
2023-02-16T04:46:05.974Z,1.66
2023-02-16T04:47:05.980Z,1.67
2023-02-16T04:48:06.008Z,1.67
2023-02-16T04:49:06.049Z,1.65
2023-02-16T04:50:06.075Z,1.64
2023-02-16T04:51:06.413Z,1.66
2023-02-16T04:52:06.149Z,1.66
2023-02-16T04:53:06.180Z,1.65
2023-02-16T04:54:06.209Z,1.64
2023-02-16T04:55:06.240Z,1.63
2023-02-16T04:56:06.283Z,1.62
2023-02-16T04:57:06.316Z,1.61
2023-02-16T04:58:06.346Z,1.6
2023-02-16T04:59:06.413Z,1.57
2023-02-16T05:00:06.416Z,1.57
2023-02-16T05:01:06.890Z,1.57
2023-02-16T05:02:06.486Z,1.59
2023-02-16T05:03:06.517Z,1.6
2023-02-16T05:04:06.649Z,1.58
2023-02-16T05:05:06.607Z,1.61
2023-02-16T05:06:06.618Z,1.62
2023-02-16T05:07:06.661Z,1.63
2023-02-16T05:08:06.696Z,1.64
2023-02-16T05:09:06.750Z,1.65
2023-02-16T05:10:06.780Z,1.64
2023-02-16T05:11:06.799Z,1.64
2023-02-16T05:12:06.827Z,1.6
2023-02-16T05:13:06.866Z,1.57
2023-02-16T05:14:06.899Z,1.56
2023-02-16T05:15:06.931Z,1.53
2023-02-16T05:16:07.022Z,1.53
2023-02-16T05:17:06.997Z,1.52
2023-02-16T05:18:07.032Z,1.5
2023-02-16T05:19:07.064Z,1.52
2023-02-16T05:20:07.095Z,1.52
2023-02-16T05:21:07.153Z,1.55
2023-02-16T05:22:07.173Z,1.56
2023-02-16T05:23:07.209Z,1.56
2023-02-16T05:24:07.245Z,1.57
2023-02-16T05:25:07.279Z,1.58
2023-02-16T05:26:07.319Z,1.56
2023-02-16T05:27:07.361Z,1.56
2023-02-16T05:28:07.492Z,1.57
2023-02-16T05:29:07.430Z,1.6
2023-02-16T05:30:07.500Z,1.62
2023-02-16T05:31:07.985Z,1.56
2023-02-16T05:32:07.664Z,1.56
2023-02-16T05:33:07.556Z,1.55
2023-02-16T05:34:07.601Z,1.55
2023-02-16T05:35:07.620Z,1.55
2023-02-16T05:36:07.650Z,1.54
2023-02-16T05:37:07.717Z,1.55
2023-02-16T05:38:07.738Z,1.54
2023-02-16T05:39:07.774Z,1.54
2023-02-16T05:40:07.820Z,1.54
2023-02-16T05:41:07.847Z,1.54
2023-02-16T05:42:07.878Z,1.52
2023-02-16T05:43:07.913Z,1.51
2023-02-16T05:44:07.947Z,1.52
2023-02-16T05:45:07.992Z,1.52
2023-02-16T05:46:08.072Z,1.53
2023-02-16T05:47:08.075Z,1.55
2023-02-16T05:48:08.092Z,1.56
2023-02-16T05:49:08.125Z,1.56
2023-02-16T05:50:08.150Z,1.55
2023-02-16T05:51:08.182Z,1.54
2023-02-16T05:52:08.213Z,1.53
2023-02-16T05:53:08.246Z,1.53
2023-02-16T05:54:08.292Z,1.53
2023-02-16T05:55:08.316Z,1.53
2023-02-16T05:56:08.373Z,1.54
2023-02-16T05:57:08.390Z,1.54
2023-02-16T05:58:08.451Z,1.54
2023-02-16T05:59:08.469Z,1.54
2023-02-16T06:00:08.511Z,1.54
2023-02-16T06:01:08.559Z,1.54
2023-02-16T06:02:08.566Z,1.54
2023-02-16T06:03:08.607Z,1.54
2023-02-16T06:04:08.719Z,1.55
2023-02-16T06:05:08.688Z,1.55
2023-02-16T06:06:08.729Z,1.56
2023-02-16T06:07:08.743Z,1.56
2023-02-16T06:08:08.772Z,1.53
2023-02-16T06:09:08.814Z,1.53
2023-02-16T06:10:08.847Z,1.53
2023-02-16T06:11:08.894Z,1.54
2023-02-16T06:12:08.915Z,1.54
2023-02-16T06:13:08.944Z,1.55
2023-02-16T06:14:09.003Z,1.56
2023-02-16T06:15:09.015Z,1.58
2023-02-16T06:16:09.133Z,1.58
2023-02-16T06:17:09.083Z,1.56
2023-02-16T06:18:09.106Z,1.55
2023-02-16T06:19:09.152Z,1.55
2023-02-16T06:20:09.177Z,1.56
2023-02-16T06:21:09.216Z,1.57
2023-02-16T06:22:09.262Z,1.58
2023-02-16T06:23:09.277Z,1.59
2023-02-16T06:24:09.322Z,1.59
2023-02-16T06:25:09.358Z,1.6
2023-02-16T06:26:09.387Z,1.61
2023-02-16T06:27:09.448Z,1.61
2023-02-16T06:28:09.460Z,1.61
2023-02-16T06:29:09.514Z,1.63
2023-02-16T06:30:09.620Z,1.63
2023-02-16T06:31:09.719Z,1.68
2023-02-16T06:32:09.686Z,1.72
2023-02-16T06:33:09.628Z,1.72
2023-02-16T06:34:09.661Z,1.73
2023-02-16T06:35:09.687Z,1.71
2023-02-16T06:36:09.722Z,1.73
2023-02-16T06:37:09.753Z,1.7
2023-02-16T06:38:09.791Z,1.68
2023-02-16T06:39:09.822Z,1.66
2023-02-16T06:40:09.849Z,1.65
2023-02-16T06:41:09.878Z,1.64
2023-02-16T06:42:09.958Z,1.64
2023-02-16T06:43:09.944Z,1.67
2023-02-16T06:44:09.994Z,1.68
2023-02-16T06:45:10.024Z,1.71
2023-02-16T06:46:10.091Z,1.72
2023-02-16T06:47:10.109Z,1.73
2023-02-16T06:48:10.131Z,1.76
2023-02-16T06:49:10.167Z,1.77
2023-02-16T06:50:10.206Z,1.77
2023-02-16T06:51:10.237Z,1.77
2023-02-16T06:52:10.275Z,1.8
2023-02-16T06:53:10.309Z,1.8
2023-02-16T06:54:10.330Z,1.8
2023-02-16T06:55:10.360Z,1.83
2023-02-16T06:56:10.396Z,1.83
2023-02-16T06:57:10.429Z,1.85
2023-02-16T06:58:10.453Z,1.89
2023-02-16T06:59:10.502Z,1.91
2023-02-16T07:00:10.530Z,1.9
2023-02-16T07:01:10.621Z,1.9
2023-02-16T07:02:10.612Z,1.92
2023-02-16T07:03:10.749Z,1.92
2023-02-16T07:04:10.668Z,1.92
2023-02-16T07:05:10.698Z,1.97
2023-02-16T07:06:10.721Z,1.97
2023-02-16T07:07:10.757Z,1.96
2023-02-16T07:08:10.796Z,1.97
2023-02-16T07:09:12.761Z,1.97
2023-02-16T07:10:10.869Z,1.97
2023-02-16T07:11:10.910Z,2.05
2023-02-16T07:12:10.943Z,2.06
2023-02-16T07:13:10.978Z,2.09
2023-02-16T07:14:11.022Z,2.11
2023-02-16T07:15:11.052Z,2.13
2023-02-16T07:16:11.132Z,2.15
2023-02-16T07:17:11.124Z,2.17
2023-02-16T07:18:11.154Z,2.2
2023-02-16T07:19:11.172Z,2.2
2023-02-16T07:20:11.209Z,2.2
2023-02-16T07:21:11.239Z,2.24
2023-02-16T07:22:11.276Z,2.26
2023-02-16T07:23:11.322Z,2.29
2023-02-16T07:24:11.364Z,2.28
2023-02-16T07:25:11.382Z,2.32
2023-02-16T07:26:11.414Z,2.33
2023-02-16T07:27:11.447Z,2.35
2023-02-16T07:28:11.475Z,2.35
2023-02-16T07:29:11.516Z,2.37
2023-02-16T07:30:11.584Z,2.44
2023-02-16T07:31:11.780Z,2.45
2023-02-16T07:32:11.662Z,2.45
2023-02-16T07:33:11.658Z,2.46
2023-02-16T07:34:11.682Z,2.5
2023-02-16T07:35:11.720Z,2.52
2023-02-16T07:36:11.760Z,2.54
2023-02-16T07:37:11.792Z,2.61
2023-02-16T07:38:11.822Z,2.63
2023-02-16T07:39:11.855Z,2.65
2023-02-16T07:40:11.922Z,2.65
2023-02-16T07:41:12.433Z,2.68
2023-02-16T07:42:11.958Z,2.71
2023-02-16T07:43:12.004Z,2.72
2023-02-16T07:44:12.060Z,2.79
2023-02-16T07:45:12.102Z,2.81
2023-02-16T07:46:12.204Z,2.84
2023-02-16T07:47:12.131Z,2.86
2023-02-16T07:48:12.165Z,2.88
2023-02-16T07:49:12.206Z,2.9
2023-02-16T07:50:12.245Z,2.94
2023-02-16T07:51:12.303Z,2.94
2023-02-16T07:52:12.300Z,2.96
2023-02-16T07:53:13.031Z,2.97
2023-02-16T07:54:12.366Z,2.98
2023-02-16T07:55:12.401Z,2.99
2023-02-16T07:56:12.441Z,3
2023-02-16T07:57:12.471Z,3
2023-02-16T07:58:12.495Z,3.04
2023-02-16T07:59:12.535Z,3.04
2023-02-16T08:00:12.567Z,3.04
2023-02-16T08:01:15.477Z,3.08
2023-02-16T08:02:12.661Z,3.08
2023-02-16T08:03:12.784Z,3.11
2023-02-16T08:04:12.693Z,3.11
2023-02-16T08:05:12.727Z,3.13
2023-02-16T08:06:12.764Z,3.14
2023-02-16T08:07:12.783Z,3.13
2023-02-16T08:08:12.810Z,3.13
2023-02-16T08:09:12.837Z,3.13
2023-02-16T08:10:12.868Z,3.14
2023-02-16T08:11:12.901Z,3.19
2023-02-16T08:12:12.963Z,3.19
2023-02-16T08:13:12.966Z,3.21
2023-02-16T08:14:13.005Z,3.23
2023-02-16T08:15:13.064Z,3.24
2023-02-16T08:16:13.099Z,3.27
2023-02-16T08:17:13.107Z,3.28
2023-02-16T08:18:13.137Z,3.3
2023-02-16T08:19:13.175Z,3.33
2023-02-16T08:20:13.217Z,3.33
2023-02-16T08:21:13.248Z,3.34
2023-02-16T08:22:13.291Z,3.4
2023-02-16T08:23:13.322Z,3.46
2023-02-16T08:24:13.413Z,3.47
2023-02-16T08:25:13.390Z,3.48
2023-02-16T08:26:13.437Z,3.5
2023-02-16T08:27:13.458Z,3.52
2023-02-16T08:28:13.502Z,3.56
2023-02-16T08:29:13.533Z,3.59
2023-02-16T08:30:13.619Z,3.64
2023-02-16T08:31:13.647Z,3.67
2023-02-16T08:32:13.725Z,3.71
2023-02-16T08:33:13.668Z,3.73
2023-02-16T08:34:13.706Z,3.75
2023-02-16T08:35:13.743Z,3.78
2023-02-16T08:36:13.818Z,3.78
2023-02-16T08:37:13.829Z,3.79
2023-02-16T08:38:13.859Z,3.81
2023-02-16T08:39:13.881Z,3.81
2023-02-16T08:40:13.930Z,3.84
2023-02-16T08:41:13.983Z,3.87
2023-02-16T08:42:13.994Z,3.89
2023-02-16T08:43:14.030Z,3.94
2023-02-16T08:44:14.068Z,3.93
2023-02-16T08:45:14.086Z,3.96
2023-02-16T08:46:14.182Z,3.99
2023-02-16T08:47:14.146Z,3.98
2023-02-16T08:48:14.243Z,3.98
2023-02-16T08:49:14.210Z,4.02
2023-02-16T08:50:14.240Z,4.04
2023-02-16T08:51:14.304Z,4.07
2023-02-16T08:52:14.317Z,4.11
2023-02-16T08:53:14.361Z,4.21
2023-02-16T08:54:14.379Z,4.22
2023-02-16T08:55:14.420Z,4.29
2023-02-16T08:56:14.483Z,4.31
2023-02-16T08:57:14.481Z,4.37
2023-02-16T08:58:14.508Z,4.39
2023-02-16T08:59:14.535Z,4.41
2023-02-16T09:00:14.573Z,4.4
2023-02-16T09:01:14.661Z,4.38
2023-02-16T09:02:14.668Z,4.37
2023-02-16T09:03:14.691Z,4.34
2023-02-16T09:04:14.740Z,4.32
2023-02-16T09:05:14.744Z,4.33
2023-02-16T09:06:14.774Z,4.38
2023-02-16T09:07:14.808Z,4.4
2023-02-16T09:08:14.831Z,4.42
2023-02-16T09:09:14.866Z,4.51
2023-02-16T09:10:14.906Z,4.55
2023-02-16T09:11:14.932Z,4.56
2023-02-16T09:12:14.979Z,4.58
2023-02-16T09:13:15.326Z,4.61
2023-02-16T09:14:15.035Z,4.67
2023-02-16T09:15:15.075Z,4.67
2023-02-16T09:16:15.128Z,4.65
2023-02-16T09:17:15.145Z,4.69
2023-02-16T09:18:15.185Z,4.76
2023-02-16T09:19:15.234Z,4.78
2023-02-16T09:20:15.257Z,4.79
2023-02-16T09:21:15.290Z,4.84
2023-02-16T09:22:15.333Z,4.85
2023-02-16T09:23:15.365Z,4.89
2023-02-16T09:24:15.394Z,4.93
2023-02-16T09:25:15.429Z,4.96
2023-02-16T09:26:15.496Z,4.98
2023-02-16T09:27:15.502Z,4.96
2023-02-16T09:28:15.539Z,4.96
2023-02-16T09:29:15.575Z,4.97
2023-02-16T09:30:15.652Z,4.98
2023-02-16T09:31:15.764Z,5.03
2023-02-16T09:32:15.694Z,5.03
2023-02-16T09:33:15.709Z,5.04
2023-02-16T09:34:15.735Z,5.05
2023-02-16T09:35:15.780Z,5.09
2023-02-16T09:36:15.817Z,5.1
2023-02-16T09:37:15.862Z,5.16
2023-02-16T09:38:15.879Z,5.21
2023-02-16T09:39:15.909Z,5.26
2023-02-16T09:40:15.942Z,5.27
2023-02-16T09:41:15.980Z,5.33
2023-02-16T09:42:16.014Z,5.32
2023-02-16T09:43:16.050Z,5.36
2023-02-16T09:44:16.086Z,5.42
2023-02-16T09:45:16.112Z,5.44
2023-02-16T09:46:16.168Z,5.53
2023-02-16T09:47:16.193Z,5.63
2023-02-16T09:48:16.216Z,5.68
2023-02-16T09:49:16.254Z,5.72
2023-02-16T09:50:17.121Z,5.72
2023-02-16T09:51:17.172Z,5.79
2023-02-16T09:52:16.356Z,5.81
2023-02-16T09:53:16.392Z,5.82
2023-02-16T09:54:16.413Z,5.84
2023-02-16T09:55:16.453Z,5.96
2023-02-16T09:56:16.490Z,6
2023-02-16T09:57:16.522Z,6.01
2023-02-16T09:58:16.556Z,6.03
2023-02-16T09:59:16.599Z,6.07
2023-02-16T10:00:16.636Z,6.15
2023-02-16T10:01:16.747Z,6.2
2023-02-16T10:02:16.736Z,6.22
2023-02-16T10:03:16.739Z,6.26
2023-02-16T10:04:16.788Z,6.22
2023-02-16T10:05:16.813Z,6.2
2023-02-16T10:06:16.850Z,6.22
2023-02-16T10:07:16.897Z,6.24
2023-02-16T10:08:16.920Z,6.24
2023-02-16T10:09:16.953Z,6.23
2023-02-16T10:10:16.989Z,6.22
2023-02-16T10:11:17.045Z,6.28
2023-02-16T10:12:17.058Z,6.33
2023-02-16T10:13:17.122Z,6.31
2023-02-16T10:14:17.134Z,6.32
2023-02-16T10:15:17.183Z,6.39
2023-02-16T10:16:17.262Z,6.41
2023-02-16T10:17:17.239Z,6.47
2023-02-16T10:18:17.264Z,6.54
2023-02-16T10:19:17.303Z,6.58
2023-02-16T10:20:17.351Z,6.57
2023-02-16T10:21:17.358Z,6.57
2023-02-16T10:22:17.730Z,6.59
2023-02-16T10:23:17.425Z,6.61
2023-02-16T10:24:17.459Z,6.62
2023-02-16T10:25:17.491Z,6.71
2023-02-16T10:26:17.526Z,6.72
2023-02-16T10:27:17.561Z,6.81
2023-02-16T10:28:17.634Z,6.8
2023-02-16T10:29:17.628Z,6.84
2023-02-16T10:30:17.707Z,6.98
2023-02-16T10:31:17.804Z,7.04
2023-02-16T10:32:17.725Z,7.06
2023-02-16T10:33:17.855Z,7.07
2023-02-16T10:34:17.795Z,7.09
2023-02-16T10:35:17.823Z,7.09
2023-02-16T10:36:17.868Z,7.08
2023-02-16T10:37:17.883Z,7.1
2023-02-16T10:38:17.918Z,7.15
2023-02-16T10:39:17.950Z,7.13
2023-02-16T10:40:17.984Z,7.2
2023-02-16T10:41:18.025Z,7.24
2023-02-16T10:42:18.081Z,7.27
2023-02-16T10:43:18.177Z,7.26
2023-02-16T10:44:18.120Z,7.29
2023-02-16T10:45:18.150Z,7.31
2023-02-16T10:46:18.243Z,7.36
2023-02-16T10:47:18.259Z,7.38
2023-02-16T10:48:18.270Z,7.35
2023-02-16T10:49:18.289Z,7.32
2023-02-16T10:50:18.317Z,7.32
2023-02-16T10:51:18.354Z,7.32
2023-02-16T10:52:18.387Z,7.32
2023-02-16T10:53:18.411Z,7.32
2023-02-16T10:54:18.441Z,7.28
2023-02-16T10:55:18.463Z,7.38
2023-02-16T10:56:18.501Z,7.42
2023-02-16T10:57:18.539Z,7.58
2023-02-16T10:58:18.608Z,7.58
2023-02-16T10:59:18.607Z,7.59
2023-02-16T11:00:18.627Z,7.63
2023-02-16T11:01:18.706Z,7.64
2023-02-16T11:02:18.698Z,7.58
2023-02-16T11:03:18.726Z,7.56
2023-02-16T11:04:18.782Z,7.51
2023-02-16T11:05:18.811Z,7.53
2023-02-16T11:06:18.826Z,7.54
2023-02-16T11:07:18.870Z,7.52
2023-02-16T11:08:18.902Z,7.54
2023-02-16T11:09:18.943Z,7.55
2023-02-16T11:10:18.981Z,7.55
2023-02-16T11:11:19.002Z,7.49
2023-02-16T11:12:19.053Z,7.51
2023-02-16T11:13:19.080Z,7.5
2023-02-16T11:14:19.111Z,7.52
2023-02-16T11:15:19.182Z,7.52
2023-02-16T11:16:19.290Z,7.51
2023-02-16T11:17:19.214Z,7.5
2023-02-16T11:18:19.258Z,7.51
2023-02-16T11:19:19.287Z,7.51
2023-02-16T11:20:19.319Z,7.54
2023-02-16T11:21:19.362Z,7.57
2023-02-16T11:22:19.387Z,7.59
2023-02-16T11:23:19.418Z,7.59
2023-02-16T11:24:19.460Z,7.62
2023-02-16T11:25:19.485Z,7.55
2023-02-16T11:26:19.520Z,7.52
2023-02-16T11:27:19.565Z,7.52
2023-02-16T11:28:19.598Z,7.57
2023-02-16T11:29:19.635Z,7.58
2023-02-16T11:30:19.719Z,7.56
2023-02-16T11:31:19.844Z,7.56
2023-02-16T11:32:19.737Z,7.61
2023-02-16T11:33:19.766Z,7.64
2023-02-16T11:34:19.796Z,7.69
2023-02-16T11:35:19.828Z,7.66
2023-02-16T11:36:19.857Z,7.6
2023-02-16T11:37:19.896Z,7.57
2023-02-16T11:38:19.931Z,7.61
2023-02-16T11:39:19.966Z,7.62
2023-02-16T11:40:20.001Z,7.68
2023-02-16T11:41:20.030Z,7.65
2023-02-16T11:42:20.061Z,7.64
2023-02-16T11:43:20.111Z,7.7
2023-02-16T11:44:20.126Z,7.66
2023-02-16T11:45:20.171Z,7.65
2023-02-16T11:46:20.256Z,7.65
2023-02-16T11:47:20.243Z,7.64
2023-02-16T11:48:20.286Z,7.71
2023-02-16T11:49:20.317Z,7.72
2023-02-16T11:50:20.351Z,7.74
2023-02-16T11:51:20.387Z,7.75
2023-02-16T11:52:20.420Z,7.77
2023-02-16T11:53:20.452Z,7.74
2023-02-16T11:54:20.496Z,7.83
2023-02-16T11:55:20.521Z,7.82
2023-02-16T11:56:20.564Z,7.86
2023-02-16T11:57:20.604Z,7.86
2023-02-16T11:58:20.642Z,7.89
2023-02-16T11:59:20.715Z,7.88
2023-02-16T12:00:20.716Z,7.87
2023-02-16T12:01:20.756Z,7.86
2023-02-16T12:02:20.826Z,7.9
2023-02-16T12:03:20.823Z,7.88
2023-02-16T12:04:20.863Z,7.91
2023-02-16T12:05:20.914Z,7.95
2023-02-16T12:06:20.953Z,7.96
2023-02-16T12:07:20.967Z,7.99
2023-02-16T12:08:21.004Z,7.98
2023-02-16T12:09:21.038Z,8.01
2023-02-16T12:10:21.106Z,8.03
2023-02-16T12:11:21.111Z,8.06
2023-02-16T12:12:21.155Z,8.12
2023-02-16T12:13:21.187Z,8.09
2023-02-16T12:14:21.224Z,8.02
2023-02-16T12:15:21.272Z,8.03
2023-02-16T12:16:21.327Z,8.05
2023-02-16T12:17:21.318Z,8.07
2023-02-16T12:18:21.356Z,8.09
2023-02-16T12:19:21.386Z,8.14
2023-02-16T12:20:21.426Z,8.17
2023-02-16T12:21:21.460Z,8.23
2023-02-16T12:22:21.498Z,8.29
2023-02-16T12:23:21.522Z,8.28
2023-02-16T12:24:21.553Z,8.25
2023-02-16T12:25:21.588Z,8.31
2023-02-16T12:26:21.670Z,8.38
2023-02-16T12:27:21.655Z,8.4
2023-02-16T12:28:21.702Z,8.37
2023-02-16T12:29:21.719Z,8.41
2023-02-16T12:30:21.838Z,8.43
2023-02-16T12:31:21.975Z,8.44
2023-02-16T12:32:21.812Z,8.46
2023-02-16T12:33:21.842Z,8.46
2023-02-16T12:34:21.872Z,8.44
2023-02-16T12:35:21.907Z,8.42
2023-02-16T12:36:21.933Z,8.36
2023-02-16T12:37:21.971Z,8.34
2023-02-16T12:38:22.003Z,8.32
2023-02-16T12:39:22.041Z,8.32
2023-02-16T12:40:22.082Z,8.3
2023-02-16T12:41:22.116Z,8.27
2023-02-16T12:42:22.164Z,8.26
2023-02-16T12:43:22.181Z,8.26
2023-02-16T12:44:22.223Z,8.23
2023-02-16T12:45:22.275Z,8.27
2023-02-16T12:46:23.915Z,8.27
2023-02-16T12:47:22.334Z,8.3
2023-02-16T12:48:22.365Z,8.3
2023-02-16T12:49:22.398Z,8.32
2023-02-16T12:50:22.435Z,8.37
2023-02-16T12:51:22.466Z,8.37
2023-02-16T12:52:22.491Z,8.39
2023-02-16T12:53:22.532Z,8.42
2023-02-16T12:54:22.573Z,8.43
2023-02-16T12:55:22.618Z,8.4
2023-02-16T12:56:22.624Z,8.37
2023-02-16T12:57:22.662Z,8.41
2023-02-16T12:58:22.688Z,8.45
2023-02-16T12:59:22.739Z,8.45
2023-02-16T13:00:22.743Z,8.49
2023-02-16T13:01:22.840Z,8.59
2023-02-16T13:02:22.825Z,8.6
2023-02-16T13:03:22.901Z,8.56
2023-02-16T13:04:22.907Z,8.55
2023-02-16T13:05:22.953Z,8.56
2023-02-16T13:06:22.973Z,8.63
2023-02-16T13:07:23.019Z,8.71
2023-02-16T13:08:23.047Z,8.69
2023-02-16T13:09:23.089Z,8.78
2023-02-16T13:10:23.121Z,8.76
2023-02-16T13:11:23.215Z,8.74
2023-02-16T13:12:23.184Z,8.74
2023-02-16T13:13:23.221Z,8.73
2023-02-16T13:14:23.261Z,8.76
2023-02-16T13:15:23.294Z,8.76
2023-02-16T13:16:30.162Z,8.75
2023-02-16T13:17:23.375Z,8.75
2023-02-16T13:18:23.403Z,8.79
2023-02-16T13:19:23.454Z,8.75
2023-02-16T13:20:23.500Z,8.84
2023-02-16T13:21:23.508Z,8.83
2023-02-16T13:22:23.540Z,8.81